sensor_id;sensor_type;location;lat;lon;timestamp;P1;durP1;ratioP1;P2;durP2;ratioP2
22646;SDS011;11490;42.726;23.268;2023-06-10T00:01:18;6.38;;;3.95;;
22646;SDS011;11490;42.726;23.268;2023-06-10T00:03:43;6.97;;;4.35;;
22646;SDS011;11490;42.726;23.268;2023-06-10T00:06:08;8.65;;;4.32;;
22646;SDS011;11490;42.726;23.268;2023-06-10T00:08:34;5.80;;;4.10;;
22646;SDS011;11490;42.726;23.268;2023-06-10T00:10:59;5.72;;;4.32;;
22646;SDS011;11490;42.726;23.268;2023-06-10T00:13:25;6.70;;;4.60;;
22646;SDS011;11490;42.726;23.268;2023-06-10T00:15:50;17.67;;;6.53;;
22646;SDS011;11490;42.726;23.268;2023-06-10T00:18:15;6.88;;;5.05;;
22646;SDS011;11490;42.726;23.268;2023-06-10T00:20:41;7.88;;;4.43;;
22646;SDS011;11490;42.726;23.268;2023-06-10T00:23:07;12.88;;;4.60;;
22646;SDS011;11490;42.726;23.268;2023-06-10T00:25:33;6.18;;;4.72;;
22646;SDS011;11490;42.726;23.268;2023-06-10T00:27:58;7.20;;;4.82;;
22646;SDS011;11490;42.726;23.268;2023-06-10T00:30:24;7.88;;;4.65;;
22646;SDS011;11490;42.726;23.268;2023-06-10T00:32:49;9.07;;;6.18;;
22646;SDS011;11490;42.726;23.268;2023-06-10T00:35:14;7.82;;;5.15;;
22646;SDS011;11490;42.726;23.268;2023-06-10T00:37:40;10.27;;;5.28;;
22646;SDS011;11490;42.726;23.268;2023-06-10T00:40:05;5.28;;;4.20;;
22646;SDS011;11490;42.726;23.268;2023-06-10T00:42:31;7.97;;;4.53;;
22646;SDS011;11490;42.726;23.268;2023-06-10T00:44:56;7.38;;;5.07;;
22646;SDS011;11490;42.726;23.268;2023-06-10T00:47:21;13.52;;;5.50;;
22646;SDS011;11490;42.726;23.268;2023-06-10T00:49:47;7.40;;;4.63;;
22646;SDS011;11490;42.726;23.268;2023-06-10T00:52:13;8.70;;;4.82;;
22646;SDS011;11490;42.726;23.268;2023-06-10T00:54:39;7.38;;;5.18;;
22646;SDS011;11490;42.726;23.268;2023-06-10T00:57:04;12.20;;;4.70;;
22646;SDS011;11490;42.726;23.268;2023-06-10T00:59:30;7.00;;;4.63;;
22646;SDS011;11490;42.726;23.268;2023-06-10T01:01:56;7.50;;;4.90;;
22646;SDS011;11490;42.726;23.268;2023-06-10T01:04:21;7.95;;;4.57;;
22646;SDS011;11490;42.726;23.268;2023-06-10T01:14:24;7.22;;;4.80;;
22646;SDS011;11490;42.726;23.268;2023-06-10T01:16:50;8.63;;;4.63;;
22646;SDS011;11490;42.726;23.268;2023-06-10T01:19:18;8.32;;;5.38;;
22646;SDS011;11490;42.726;23.268;2023-06-10T01:21:43;8.25;;;5.55;;
22646;SDS011;11490;42.726;23.268;2023-06-10T01:24:13;7.78;;;4.85;;
22646;SDS011;11490;42.726;23.268;2023-06-10T01:26:38;9.32;;;5.32;;
22646;SDS011;11490;42.726;23.268;2023-06-10T01:34:13;7.07;;;5.15;;
22646;SDS011;11490;42.726;23.268;2023-06-10T01:36:39;8.25;;;5.57;;
22646;SDS011;11490;42.726;23.268;2023-06-10T01:39:05;10.10;;;4.85;;
22646;SDS011;11490;42.726;23.268;2023-06-10T01:41:34;8.70;;;4.78;;
22646;SDS011;11490;42.726;23.268;2023-06-10T01:44:00;8.45;;;5.45;;
22646;SDS011;11490;42.726;23.268;2023-06-10T01:46:25;6.32;;;5.00;;
22646;SDS011;11490;42.726;23.268;2023-06-10T01:48:50;9.27;;;5.45;;
22646;SDS011;11490;42.726;23.268;2023-06-10T01:51:15;6.57;;;4.75;;
22646;SDS011;11490;42.726;23.268;2023-06-10T01:53:41;8.48;;;5.68;;
22646;SDS011;11490;42.726;23.268;2023-06-10T01:56:06;6.93;;;4.78;;
22646;SDS011;11490;42.726;23.268;2023-06-10T01:58:31;8.05;;;5.75;;
22646;SDS011;11490;42.726;23.268;2023-06-10T02:00:56;8.07;;;5.07;;
22646;SDS011;11490;42.726;23.268;2023-06-10T02:03:22;8.93;;;5.45;;
22646;SDS011;11490;42.726;23.268;2023-06-10T02:05:48;6.95;;;5.40;;
22646;SDS011;11490;42.726;23.268;2023-06-10T02:08:14;9.60;;;5.55;;
22646;SDS011;11490;42.726;23.268;2023-06-10T02:10:39;7.32;;;5.03;;
22646;SDS011;11490;42.726;23.268;2023-06-10T02:13:05;6.53;;;4.10;;
22646;SDS011;11490;42.726;23.268;2023-06-10T02:15:31;6.13;;;4.95;;
22646;SDS011;11490;42.726;23.268;2023-06-10T02:17:56;8.02;;;5.13;;
22646;SDS011;11490;42.726;23.268;2023-06-10T02:20:21;8.63;;;5.28;;
22646;SDS011;11490;42.726;23.268;2023-06-10T02:22:46;7.88;;;5.25;;
22646;SDS011;11490;42.726;23.268;2023-06-10T02:25:12;9.38;;;5.63;;
22646;SDS011;11490;42.726;23.268;2023-06-10T02:27:37;6.90;;;4.93;;
22646;SDS011;11490;42.726;23.268;2023-06-10T02:30:02;8.40;;;5.82;;
22646;SDS011;11490;42.726;23.268;2023-06-10T02:32:28;7.85;;;5.13;;
22646;SDS011;11490;42.726;23.268;2023-06-10T02:34:53;5.57;;;4.20;;
22646;SDS011;11490;42.726;23.268;2023-06-10T02:37:18;15.20;;;6.22;;
22646;SDS011;11490;42.726;23.268;2023-06-10T02:39:43;8.32;;;5.53;;
22646;SDS011;11490;42.726;23.268;2023-06-10T02:42:09;8.35;;;5.93;;
22646;SDS011;11490;42.726;23.268;2023-06-10T02:44:35;7.20;;;4.57;;
22646;SDS011;11490;42.726;23.268;2023-06-10T02:47:00;8.02;;;5.10;;
22646;SDS011;11490;42.726;23.268;2023-06-10T02:49:26;8.32;;;6.45;;
22646;SDS011;11490;42.726;23.268;2023-06-10T02:51:54;7.15;;;5.20;;
22646;SDS011;11490;42.726;23.268;2023-06-10T02:54:20;6.97;;;4.72;;
22646;SDS011;11490;42.726;23.268;2023-06-10T02:56:45;7.60;;;5.57;;
22646;SDS011;11490;42.726;23.268;2023-06-10T02:59:10;8.85;;;5.50;;
22646;SDS011;11490;42.726;23.268;2023-06-10T03:01:36;8.23;;;6.07;;
22646;SDS011;11490;42.726;23.268;2023-06-10T03:04:02;7.70;;;4.80;;
22646;SDS011;11490;42.726;23.268;2023-06-10T03:06:28;7.90;;;5.72;;
22646;SDS011;11490;42.726;23.268;2023-06-10T03:08:54;10.00;;;5.80;;
22646;SDS011;11490;42.726;23.268;2023-06-10T03:11:19;7.47;;;5.43;;
22646;SDS011;11490;42.726;23.268;2023-06-10T03:13:45;8.02;;;5.05;;
22646;SDS011;11490;42.726;23.268;2023-06-10T03:16:10;6.78;;;4.85;;
22646;SDS011;11490;42.726;23.268;2023-06-10T03:18:37;8.50;;;5.93;;
22646;SDS011;11490;42.726;23.268;2023-06-10T03:21:02;8.07;;;5.32;;
22646;SDS011;11490;42.726;23.268;2023-06-10T03:23:28;10.45;;;5.95;;
22646;SDS011;11490;42.726;23.268;2023-06-10T03:25:54;8.38;;;5.47;;
22646;SDS011;11490;42.726;23.268;2023-06-10T03:28:20;8.48;;;5.07;;
22646;SDS011;11490;42.726;23.268;2023-06-10T03:30:46;12.07;;;5.88;;
22646;SDS011;11490;42.726;23.268;2023-06-10T03:33:11;9.05;;;5.13;;
22646;SDS011;11490;42.726;23.268;2023-06-10T03:35:37;8.35;;;5.03;;
22646;SDS011;11490;42.726;23.268;2023-06-10T03:38:02;8.70;;;5.47;;
22646;SDS011;11490;42.726;23.268;2023-06-10T03:40:27;8.00;;;5.35;;
22646;SDS011;11490;42.726;23.268;2023-06-10T03:42:52;7.80;;;5.03;;
22646;SDS011;11490;42.726;23.268;2023-06-10T03:45:18;12.93;;;7.25;;
22646;SDS011;11490;42.726;23.268;2023-06-10T03:47:43;7.82;;;5.32;;
22646;SDS011;11490;42.726;23.268;2023-06-10T03:50:09;8.55;;;5.47;;
22646;SDS011;11490;42.726;23.268;2023-06-10T03:52:35;6.90;;;5.28;;
22646;SDS011;11490;42.726;23.268;2023-06-10T03:55:00;8.82;;;5.72;;
22646;SDS011;11490;42.726;23.268;2023-06-10T03:57:25;12.23;;;5.72;;
22646;SDS011;11490;42.726;23.268;2023-06-10T03:59:51;8.30;;;5.13;;
22646;SDS011;11490;42.726;23.268;2023-06-10T04:02:16;9.60;;;5.90;;
22646;SDS011;11490;42.726;23.268;2023-06-10T04:04:42;7.25;;;4.95;;
22646;SDS011;11490;42.726;23.268;2023-06-10T04:07:07;9.35;;;6.72;;
22646;SDS011;11490;42.726;23.268;2023-06-10T04:09:33;10.65;;;6.65;;
22646;SDS011;11490;42.726;23.268;2023-06-10T04:11:59;11.35;;;6.60;;
22646;SDS011;11490;42.726;23.268;2023-06-10T04:14:24;10.43;;;5.00;;
22646;SDS011;11490;42.726;23.268;2023-06-10T04:16:49;6.78;;;4.97;;
22646;SDS011;11490;42.726;23.268;2023-06-10T04:19:15;7.30;;;4.35;;
22646;SDS011;11490;42.726;23.268;2023-06-10T04:21:41;7.53;;;4.35;;
22646;SDS011;11490;42.726;23.268;2023-06-10T04:24:06;6.65;;;4.57;;
22646;SDS011;11490;42.726;23.268;2023-06-10T04:26:32;12.35;;;4.72;;
22646;SDS011;11490;42.726;23.268;2023-06-10T04:28:57;7.00;;;4.47;;
22646;SDS011;11490;42.726;23.268;2023-06-10T04:31:22;8.52;;;5.07;;
22646;SDS011;11490;42.726;23.268;2023-06-10T04:33:48;8.30;;;5.65;;
22646;SDS011;11490;42.726;23.268;2023-06-10T04:36:13;6.85;;;5.30;;
22646;SDS011;11490;42.726;23.268;2023-06-10T04:38:39;13.48;;;5.57;;
22646;SDS011;11490;42.726;23.268;2023-06-10T04:41:05;11.10;;;6.05;;
22646;SDS011;11490;42.726;23.268;2023-06-10T04:43:31;9.10;;;5.40;;
22646;SDS011;11490;42.726;23.268;2023-06-10T04:45:56;10.75;;;6.00;;
22646;SDS011;11490;42.726;23.268;2023-06-10T04:48:21;8.02;;;5.47;;
22646;SDS011;11490;42.726;23.268;2023-06-10T04:50:48;8.52;;;5.88;;
22646;SDS011;11490;42.726;23.268;2023-06-10T04:53:14;7.43;;;5.00;;
22646;SDS011;11490;42.726;23.268;2023-06-10T04:55:40;6.95;;;4.72;;
22646;SDS011;11490;42.726;23.268;2023-06-10T04:58:05;9.77;;;5.80;;
22646;SDS011;11490;42.726;23.268;2023-06-10T05:00:30;7.72;;;5.65;;
22646;SDS011;11490;42.726;23.268;2023-06-10T05:02:56;9.50;;;5.15;;
22646;SDS011;11490;42.726;23.268;2023-06-10T05:05:21;7.05;;;4.88;;
22646;SDS011;11490;42.726;23.268;2023-06-10T05:07:46;8.23;;;4.72;;
22646;SDS011;11490;42.726;23.268;2023-06-10T05:10:11;11.20;;;4.80;;
22646;SDS011;11490;42.726;23.268;2023-06-10T05:12:37;8.25;;;6.45;;
22646;SDS011;11490;42.726;23.268;2023-06-10T05:15:04;7.43;;;5.50;;
22646;SDS011;11490;42.726;23.268;2023-06-10T05:17:29;7.78;;;4.90;;
22646;SDS011;11490;42.726;23.268;2023-06-10T05:19:54;7.65;;;5.65;;
22646;SDS011;11490;42.726;23.268;2023-06-10T05:22:19;7.82;;;4.93;;
22646;SDS011;11490;42.726;23.268;2023-06-10T05:24:45;8.82;;;5.40;;
22646;SDS011;11490;42.726;23.268;2023-06-10T05:27:10;7.95;;;5.20;;
22646;SDS011;11490;42.726;23.268;2023-06-10T05:29:35;10.20;;;5.75;;
22646;SDS011;11490;42.726;23.268;2023-06-10T05:32:01;7.45;;;4.70;;
22646;SDS011;11490;42.726;23.268;2023-06-10T05:34:31;8.68;;;4.50;;
22646;SDS011;11490;42.726;23.268;2023-06-10T05:36:56;7.55;;;4.70;;
22646;SDS011;11490;42.726;23.268;2023-06-10T05:39:21;7.35;;;4.72;;
22646;SDS011;11490;42.726;23.268;2023-06-10T05:41:46;5.63;;;4.55;;
22646;SDS011;11490;42.726;23.268;2023-06-10T05:44:12;7.38;;;5.18;;
22646;SDS011;11490;42.726;23.268;2023-06-10T05:46:37;10.00;;;5.03;;
22646;SDS011;11490;42.726;23.268;2023-06-10T05:49:02;6.63;;;5.38;;
22646;SDS011;11490;42.726;23.268;2023-06-10T05:51:28;7.05;;;4.95;;
22646;SDS011;11490;42.726;23.268;2023-06-10T05:53:53;5.97;;;4.40;;
22646;SDS011;11490;42.726;23.268;2023-06-10T05:56:18;11.05;;;4.72;;
22646;SDS011;11490;42.726;23.268;2023-06-10T05:58:44;7.63;;;5.32;;
22646;SDS011;11490;42.726;23.268;2023-06-10T06:01:09;16.05;;;4.68;;
22646;SDS011;11490;42.726;23.268;2023-06-10T06:03:34;6.85;;;4.47;;
22646;SDS011;11490;42.726;23.268;2023-06-10T06:06:00;6.93;;;4.80;;
22646;SDS011;11490;42.726;23.268;2023-06-10T06:08:25;6.70;;;3.67;;
22646;SDS011;11490;42.726;23.268;2023-06-10T06:10:50;6.10;;;3.90;;
22646;SDS011;11490;42.726;23.268;2023-06-10T06:13:16;6.18;;;4.38;;
22646;SDS011;11490;42.726;23.268;2023-06-10T06:15:41;6.65;;;4.57;;
22646;SDS011;11490;42.726;23.268;2023-06-10T06:18:06;6.38;;;4.70;;
22646;SDS011;11490;42.726;23.268;2023-06-10T06:20:31;7.20;;;3.97;;
22646;SDS011;11490;42.726;23.268;2023-06-10T06:22:57;9.27;;;4.90;;
22646;SDS011;11490;42.726;23.268;2023-06-10T06:25:22;10.77;;;5.22;;
22646;SDS011;11490;42.726;23.268;2023-06-10T06:27:48;8.50;;;4.70;;
22646;SDS011;11490;42.726;23.268;2023-06-10T06:30:13;9.43;;;4.70;;
22646;SDS011;11490;42.726;23.268;2023-06-10T06:32:38;7.95;;;4.47;;
22646;SDS011;11490;42.726;23.268;2023-06-10T06:35:04;5.63;;;4.22;;
22646;SDS011;11490;42.726;23.268;2023-06-10T06:37:31;5.95;;;4.78;;
22646;SDS011;11490;42.726;23.268;2023-06-10T06:39:57;6.32;;;4.20;;
22646;SDS011;11490;42.726;23.268;2023-06-10T06:42:22;5.30;;;3.70;;
22646;SDS011;11490;42.726;23.268;2023-06-10T06:44:48;4.93;;;3.20;;
22646;SDS011;11490;42.726;23.268;2023-06-10T06:47:13;5.32;;;3.83;;
22646;SDS011;11490;42.726;23.268;2023-06-10T06:49:38;6.47;;;4.72;;
22646;SDS011;11490;42.726;23.268;2023-06-10T06:52:04;5.78;;;3.72;;
22646;SDS011;11490;42.726;23.268;2023-06-10T06:54:29;5.97;;;4.43;;
22646;SDS011;11490;42.726;23.268;2023-06-10T06:56:54;6.40;;;4.38;;
22646;SDS011;11490;42.726;23.268;2023-06-10T06:59:20;6.22;;;4.40;;
22646;SDS011;11490;42.726;23.268;2023-06-10T07:01:45;5.93;;;4.45;;
22646;SDS011;11490;42.726;23.268;2023-06-10T07:04:11;7.72;;;4.45;;
22646;SDS011;11490;42.726;23.268;2023-06-10T07:06:36;7.50;;;4.93;;
22646;SDS011;11490;42.726;23.268;2023-06-10T07:09:03;10.38;;;4.63;;
22646;SDS011;11490;42.726;23.268;2023-06-10T07:11:28;6.68;;;4.35;;
22646;SDS011;11490;42.726;23.268;2023-06-10T07:13:53;7.22;;;4.85;;
22646;SDS011;11490;42.726;23.268;2023-06-10T07:16:21;7.22;;;4.28;;
22646;SDS011;11490;42.726;23.268;2023-06-10T07:18:47;7.20;;;5.18;;
22646;SDS011;11490;42.726;23.268;2023-06-10T07:21:12;5.57;;;3.92;;
22646;SDS011;11490;42.726;23.268;2023-06-10T07:23:37;5.80;;;4.25;;
22646;SDS011;11490;42.726;23.268;2023-06-10T07:26:06;6.65;;;3.97;;
22646;SDS011;11490;42.726;23.268;2023-06-10T07:28:32;4.90;;;3.47;;
22646;SDS011;11490;42.726;23.268;2023-06-10T07:30:58;4.93;;;2.63;;
22646;SDS011;11490;42.726;23.268;2023-06-10T07:33:23;7.18;;;3.72;;
22646;SDS011;11490;42.726;23.268;2023-06-10T07:35:48;6.55;;;3.30;;
22646;SDS011;11490;42.726;23.268;2023-06-10T07:38:13;5.30;;;2.80;;
22646;SDS011;11490;42.726;23.268;2023-06-10T07:40:38;4.95;;;3.13;;
22646;SDS011;11490;42.726;23.268;2023-06-10T07:43:04;6.85;;;2.47;;
22646;SDS011;11490;42.726;23.268;2023-06-10T07:45:29;4.65;;;3.25;;
22646;SDS011;11490;42.726;23.268;2023-06-10T07:47:54;7.15;;;3.60;;
22646;SDS011;11490;42.726;23.268;2023-06-10T07:50:20;6.65;;;3.33;;
22646;SDS011;11490;42.726;23.268;2023-06-10T07:52:46;5.38;;;3.42;;
22646;SDS011;11490;42.726;23.268;2023-06-10T07:55:11;4.70;;;3.13;;
22646;SDS011;11490;42.726;23.268;2023-06-10T07:57:36;7.22;;;2.80;;
22646;SDS011;11490;42.726;23.268;2023-06-10T08:00:04;4.03;;;2.50;;
22646;SDS011;11490;42.726;23.268;2023-06-10T08:02:31;6.53;;;2.78;;
22646;SDS011;11490;42.726;23.268;2023-06-10T08:04:56;4.18;;;2.85;;
22646;SDS011;11490;42.726;23.268;2023-06-10T08:07:21;5.30;;;2.50;;
22646;SDS011;11490;42.726;23.268;2023-06-10T08:09:47;6.43;;;3.50;;
22646;SDS011;11490;42.726;23.268;2023-06-10T08:12:12;4.22;;;2.83;;
22646;SDS011;11490;42.726;23.268;2023-06-10T08:14:37;4.00;;;2.88;;
22646;SDS011;11490;42.726;23.268;2023-06-10T08:17:03;8.32;;;3.05;;
22646;SDS011;11490;42.726;23.268;2023-06-10T08:19:30;4.00;;;2.47;;
22646;SDS011;11490;42.726;23.268;2023-06-10T08:21:56;4.18;;;2.47;;
22646;SDS011;11490;42.726;23.268;2023-06-10T08:24:21;5.10;;;2.67;;
22646;SDS011;11490;42.726;23.268;2023-06-10T08:26:46;3.90;;;2.25;;
22646;SDS011;11490;42.726;23.268;2023-06-10T08:29:12;5.72;;;2.95;;
22646;SDS011;11490;42.726;23.268;2023-06-10T08:31:37;6.93;;;3.20;;
22646;SDS011;11490;42.726;23.268;2023-06-10T08:34:05;7.05;;;2.22;;
22646;SDS011;11490;42.726;23.268;2023-06-10T08:36:31;4.68;;;2.65;;
22646;SDS011;11490;42.726;23.268;2023-06-10T08:38:56;4.82;;;2.22;;
22646;SDS011;11490;42.726;23.268;2023-06-10T08:41:21;3.88;;;2.38;;
22646;SDS011;11490;42.726;23.268;2023-06-10T08:44:09;3.20;;;2.42;;
22646;SDS011;11490;42.726;23.268;2023-06-10T08:46:35;2.40;;;1.70;;
22646;SDS011;11490;42.726;23.268;2023-06-10T08:49:02;5.40;;;2.40;;
22646;SDS011;11490;42.726;23.268;2023-06-10T08:51:28;3.53;;;2.30;;
22646;SDS011;11490;42.726;23.268;2023-06-10T08:53:58;3.25;;;2.22;;
22646;SDS011;11490;42.726;23.268;2023-06-10T08:56:25;3.20;;;2.25;;
22646;SDS011;11490;42.726;23.268;2023-06-10T08:58:52;4.03;;;2.65;;
22646;SDS011;11490;42.726;23.268;2023-06-10T09:01:18;3.35;;;2.53;;
22646;SDS011;11490;42.726;23.268;2023-06-10T09:03:43;3.28;;;2.60;;
22646;SDS011;11490;42.726;23.268;2023-06-10T09:06:08;3.75;;;2.35;;
22646;SDS011;11490;42.726;23.268;2023-06-10T09:08:34;2.67;;;2.10;;
22646;SDS011;11490;42.726;23.268;2023-06-10T09:11:00;4.35;;;2.22;;
22646;SDS011;11490;42.726;23.268;2023-06-10T09:13:25;5.65;;;2.08;;
22646;SDS011;11490;42.726;23.268;2023-06-10T09:15:51;3.95;;;1.98;;
22646;SDS011;11490;42.726;23.268;2023-06-10T09:18:16;5.13;;;1.88;;
22646;SDS011;11490;42.726;23.268;2023-06-10T09:20:42;5.85;;;2.40;;
22646;SDS011;11490;42.726;23.268;2023-06-10T09:23:08;4.22;;;2.25;;
22646;SDS011;11490;42.726;23.268;2023-06-10T09:25:34;3.40;;;2.10;;
22646;SDS011;11490;42.726;23.268;2023-06-10T09:28:00;3.45;;;2.10;;
22646;SDS011;11490;42.726;23.268;2023-06-10T09:32:52;3.88;;;2.35;;
22646;SDS011;11490;42.726;23.268;2023-06-10T09:35:17;2.42;;;1.80;;
22646;SDS011;11490;42.726;23.268;2023-06-10T09:37:43;2.72;;;1.92;;
22646;SDS011;11490;42.726;23.268;2023-06-10T09:40:09;2.33;;;1.70;;
22646;SDS011;11490;42.726;23.268;2023-06-10T09:42:37;2.40;;;1.40;;
22646;SDS011;11490;42.726;23.268;2023-06-10T09:45:03;3.20;;;1.67;;
22646;SDS011;11490;42.726;23.268;2023-06-10T09:47:28;3.28;;;1.58;;
22646;SDS011;11490;42.726;23.268;2023-06-10T09:49:54;4.45;;;2.05;;
22646;SDS011;11490;42.726;23.268;2023-06-10T09:52:22;3.17;;;1.55;;
22646;SDS011;11490;42.726;23.268;2023-06-10T09:54:48;1.73;;;1.25;;
22646;SDS011;11490;42.726;23.268;2023-06-10T09:57:13;2.25;;;1.42;;
22646;SDS011;11490;42.726;23.268;2023-06-10T09:59:39;2.78;;;1.65;;
22646;SDS011;11490;42.726;23.268;2023-06-10T10:02:05;3.20;;;1.88;;
22646;SDS011;11490;42.726;23.268;2023-06-10T10:04:30;2.45;;;1.63;;
22646;SDS011;11490;42.726;23.268;2023-06-10T10:06:56;4.15;;;1.60;;
22646;SDS011;11490;42.726;23.268;2023-06-10T10:09:21;2.97;;;1.90;;
22646;SDS011;11490;42.726;23.268;2023-06-10T10:11:46;2.75;;;1.55;;
22646;SDS011;11490;42.726;23.268;2023-06-10T10:14:12;2.58;;;1.70;;
22646;SDS011;11490;42.726;23.268;2023-06-10T10:16:40;3.72;;;1.83;;
22646;SDS011;11490;42.726;23.268;2023-06-10T10:19:20;3.33;;;1.98;;
22646;SDS011;11490;42.726;23.268;2023-06-10T10:21:52;2.92;;;1.70;;
22646;SDS011;11490;42.726;23.268;2023-06-10T10:24:18;3.72;;;2.15;;
22646;SDS011;11490;42.726;23.268;2023-06-10T10:26:46;3.20;;;1.98;;
22646;SDS011;11490;42.726;23.268;2023-06-10T10:29:16;4.03;;;2.45;;
22646;SDS011;11490;42.726;23.268;2023-06-10T10:31:44;2.90;;;1.90;;
22646;SDS011;11490;42.726;23.268;2023-06-10T10:34:12;3.25;;;1.80;;
22646;SDS011;11490;42.726;23.268;2023-06-10T10:36:38;4.47;;;1.98;;
22646;SDS011;11490;42.726;23.268;2023-06-10T10:39:04;2.97;;;2.00;;
22646;SDS011;11490;42.726;23.268;2023-06-10T10:41:30;4.30;;;2.28;;
22646;SDS011;11490;42.726;23.268;2023-06-10T10:43:56;3.63;;;2.00;;
22646;SDS011;11490;42.726;23.268;2023-06-10T10:46:21;3.70;;;1.90;;
22646;SDS011;11490;42.726;23.268;2023-06-10T10:48:50;2.85;;;2.10;;
22646;SDS011;11490;42.726;23.268;2023-06-10T10:51:16;5.53;;;2.28;;
22646;SDS011;11490;42.726;23.268;2023-06-10T10:53:42;2.45;;;1.50;;
22646;SDS011;11490;42.726;23.268;2023-06-10T10:58:34;4.30;;;2.42;;
22646;SDS011;11490;42.726;23.268;2023-06-10T11:01:00;5.00;;;2.75;;
22646;SDS011;11490;42.726;23.268;2023-06-10T11:03:35;3.00;;;1.90;;
22646;SDS011;11490;42.726;23.268;2023-06-10T11:06:06;4.85;;;2.53;;
22646;SDS011;11490;42.726;23.268;2023-06-10T11:11:17;4.60;;;2.63;;
22646;SDS011;11490;42.726;23.268;2023-06-10T11:13:43;3.45;;;1.83;;
22646;SDS011;11490;42.726;23.268;2023-06-10T11:16:22;4.28;;;2.30;;
22646;SDS011;11490;42.726;23.268;2023-06-10T11:18:53;8.18;;;2.47;;
22646;SDS011;11490;42.726;23.268;2023-06-10T11:21:18;5.05;;;2.25;;
22646;SDS011;11490;42.726;23.268;2023-06-10T11:23:44;3.63;;;2.08;;
22646;SDS011;11490;42.726;23.268;2023-06-10T11:26:43;4.40;;;2.65;;
22646;SDS011;11490;42.726;23.268;2023-06-10T11:29:02;5.03;;;2.15;;
22646;SDS011;11490;42.726;23.268;2023-06-10T11:33:56;3.85;;;2.42;;
22646;SDS011;11490;42.726;23.268;2023-06-10T11:36:22;2.33;;;1.88;;
22646;SDS011;11490;42.726;23.268;2023-06-10T11:38:48;3.17;;;2.05;;
22646;SDS011;11490;42.726;23.268;2023-06-10T11:41:14;4.35;;;2.30;;
22646;SDS011;11490;42.726;23.268;2023-06-10T11:43:43;4.80;;;2.13;;
22646;SDS011;11490;42.726;23.268;2023-06-10T11:46:09;5.38;;;2.25;;
22646;SDS011;11490;42.726;23.268;2023-06-10T11:48:34;3.08;;;2.03;;
22646;SDS011;11490;42.726;23.268;2023-06-10T11:50:59;3.28;;;2.25;;
22646;SDS011;11490;42.726;23.268;2023-06-10T11:53:25;3.08;;;1.88;;
22646;SDS011;11490;42.726;23.268;2023-06-10T11:55:50;2.88;;;2.22;;
22646;SDS011;11490;42.726;23.268;2023-06-10T11:58:16;2.88;;;1.70;;
22646;SDS011;11490;42.726;23.268;2023-06-10T12:00:45;2.83;;;1.63;;
22646;SDS011;11490;42.726;23.268;2023-06-10T12:03:11;3.00;;;2.05;;
22646;SDS011;11490;42.726;23.268;2023-06-10T12:05:36;3.40;;;2.13;;
22646;SDS011;11490;42.726;23.268;2023-06-10T12:08:08;2.70;;;1.80;;
22646;SDS011;11490;42.726;23.268;2023-06-10T12:10:38;5.07;;;2.70;;
22646;SDS011;11490;42.726;23.268;2023-06-10T12:13:03;3.97;;;2.40;;
22646;SDS011;11490;42.726;23.268;2023-06-10T12:15:29;4.93;;;2.55;;
22646;SDS011;11490;42.726;23.268;2023-06-10T12:17:54;3.35;;;2.20;;
22646;SDS011;11490;42.726;23.268;2023-06-10T12:20:26;3.80;;;2.13;;
22646;SDS011;11490;42.726;23.268;2023-06-10T12:22:55;3.85;;;2.15;;
22646;SDS011;11490;42.726;23.268;2023-06-10T12:25:29;3.83;;;2.00;;
22646;SDS011;11490;42.726;23.268;2023-06-10T12:27:58;4.35;;;2.58;;
22646;SDS011;11490;42.726;23.268;2023-06-10T12:30:24;4.88;;;1.92;;
22646;SDS011;11490;42.726;23.268;2023-06-10T12:32:50;3.05;;;1.92;;
22646;SDS011;11490;42.726;23.268;2023-06-10T12:35:19;2.95;;;1.70;;
22646;SDS011;11490;42.726;23.268;2023-06-10T12:40:47;4.05;;;2.50;;
22646;SDS011;11490;42.726;23.268;2023-06-10T12:43:12;3.75;;;2.25;;
22646;SDS011;11490;42.726;23.268;2023-06-10T12:45:38;2.95;;;1.95;;
22646;SDS011;11490;42.726;23.268;2023-06-10T12:48:17;3.88;;;1.83;;
22646;SDS011;11490;42.726;23.268;2023-06-10T12:50:43;4.20;;;2.33;;
22646;SDS011;11490;42.726;23.268;2023-06-10T12:53:09;3.78;;;2.20;;
22646;SDS011;11490;42.726;23.268;2023-06-10T12:55:36;9.07;;;2.20;;
22646;SDS011;11490;42.726;23.268;2023-06-10T12:58:01;3.22;;;1.70;;
22646;SDS011;11490;42.726;23.268;2023-06-10T13:00:29;3.95;;;2.15;;
22646;SDS011;11490;42.726;23.268;2023-06-10T13:02:59;2.80;;;2.00;;
22646;SDS011;11490;42.726;23.268;2023-06-10T13:05:25;5.32;;;2.35;;
22646;SDS011;11490;42.726;23.268;2023-06-10T13:07:51;5.68;;;2.92;;
22646;SDS011;11490;42.726;23.268;2023-06-10T13:10:16;9.65;;;2.15;;
22646;SDS011;11490;42.726;23.268;2023-06-10T13:12:42;2.90;;;2.30;;
22646;SDS011;11490;42.726;23.268;2023-06-10T13:15:08;6.15;;;2.72;;
22646;SDS011;11490;42.726;23.268;2023-06-10T13:17:33;4.47;;;2.90;;
22646;SDS011;11490;42.726;23.268;2023-06-10T13:20:02;5.70;;;2.58;;
22646;SDS011;11490;42.726;23.268;2023-06-10T13:22:28;4.20;;;2.67;;
22646;SDS011;11490;42.726;23.268;2023-06-10T13:24:55;2.55;;;2.13;;
22646;SDS011;11490;42.726;23.268;2023-06-10T13:27:20;4.22;;;2.40;;
22646;SDS011;11490;42.726;23.268;2023-06-10T13:29:46;5.80;;;3.30;;
22646;SDS011;11490;42.726;23.268;2023-06-10T13:32:11;3.60;;;2.25;;
22646;SDS011;11490;42.726;23.268;2023-06-10T13:34:37;4.90;;;2.70;;
22646;SDS011;11490;42.726;23.268;2023-06-10T13:37:02;5.95;;;2.45;;
22646;SDS011;11490;42.726;23.268;2023-06-10T13:39:29;5.82;;;3.42;;
22646;SDS011;11490;42.726;23.268;2023-06-10T13:41:54;5.93;;;3.38;;
22646;SDS011;11490;42.726;23.268;2023-06-10T13:44:19;5.05;;;3.28;;
22646;SDS011;11490;42.726;23.268;2023-06-10T13:46:45;4.35;;;3.13;;
22646;SDS011;11490;42.726;23.268;2023-06-10T13:49:10;4.40;;;2.55;;
22646;SDS011;11490;42.726;23.268;2023-06-10T13:51:36;8.02;;;2.80;;
22646;SDS011;11490;42.726;23.268;2023-06-10T13:54:01;4.65;;;2.97;;
22646;SDS011;11490;42.726;23.268;2023-06-10T13:56:27;5.60;;;3.20;;
22646;SDS011;11490;42.726;23.268;2023-06-10T13:58:52;5.60;;;2.90;;
22646;SDS011;11490;42.726;23.268;2023-06-10T14:01:17;11.73;;;3.10;;
22646;SDS011;11490;42.726;23.268;2023-06-10T14:03:43;6.03;;;3.05;;
22646;SDS011;11490;42.726;23.268;2023-06-10T14:06:08;4.10;;;2.70;;
22646;SDS011;11490;42.726;23.268;2023-06-10T14:08:33;4.82;;;2.60;;
22646;SDS011;11490;42.726;23.268;2023-06-10T14:10:59;4.50;;;2.67;;
22646;SDS011;11490;42.726;23.268;2023-06-10T14:13:27;4.00;;;2.40;;
22646;SDS011;11490;42.726;23.268;2023-06-10T14:15:53;4.35;;;2.92;;
22646;SDS011;11490;42.726;23.268;2023-06-10T14:18:18;5.78;;;2.45;;
22646;SDS011;11490;42.726;23.268;2023-06-10T14:20:43;4.95;;;3.20;;
22646;SDS011;11490;42.726;23.268;2023-06-10T14:23:08;4.97;;;3.25;;
22646;SDS011;11490;42.726;23.268;2023-06-10T14:25:34;6.20;;;3.10;;
22646;SDS011;11490;42.726;23.268;2023-06-10T14:27:59;6.57;;;3.30;;
22646;SDS011;11490;42.726;23.268;2023-06-10T14:30:25;4.35;;;3.40;;
22646;SDS011;11490;42.726;23.268;2023-06-10T14:32:50;3.83;;;2.40;;
22646;SDS011;11490;42.726;23.268;2023-06-10T14:35:16;4.47;;;2.90;;
22646;SDS011;11490;42.726;23.268;2023-06-10T14:37:41;8.05;;;3.78;;
22646;SDS011;11490;42.726;23.268;2023-06-10T14:40:06;5.35;;;2.97;;
22646;SDS011;11490;42.726;23.268;2023-06-10T14:42:32;9.18;;;3.17;;
22646;SDS011;11490;42.726;23.268;2023-06-10T14:44:57;8.15;;;3.42;;
22646;SDS011;11490;42.726;23.268;2023-06-10T14:47:22;5.93;;;3.30;;
22646;SDS011;11490;42.726;23.268;2023-06-10T14:49:48;6.60;;;3.20;;
22646;SDS011;11490;42.726;23.268;2023-06-10T14:52:13;5.45;;;3.22;;